createdAt,value
2022-09-28T00:01:20.202Z,8.27
2022-09-28T00:03:49.647Z,7.20
2022-09-28T00:06:21.759Z,8.80
2022-09-28T00:08:52.400Z,8.40
2022-09-28T00:11:21.786Z,9.07
2022-09-28T00:13:51.752Z,10.38
2022-09-28T00:16:24.320Z,10.95
2022-09-28T00:18:52.357Z,10.60
2022-09-28T00:21:22.689Z,10.30
2022-09-28T00:24:13.021Z,12.60
2022-09-28T00:26:45.097Z,11.85
2022-09-28T00:29:21.000Z,14.43
2022-09-28T00:31:52.272Z,12.00
2022-09-28T00:34:20.675Z,11.88
2022-09-28T00:36:48.814Z,16.67
2022-09-28T00:39:17.468Z,11.82
2022-09-28T00:41:46.619Z,12.60
2022-09-28T00:44:25.955Z,13.95
2022-09-28T00:47:02.221Z,12.23
2022-09-28T00:49:45.605Z,11.77
2022-09-28T00:52:19.161Z,11.75
2022-09-28T00:57:17.334Z,11.85
2022-09-28T00:59:45.092Z,13.40
2022-09-28T01:02:12.748Z,19.73
2022-09-28T01:04:40.273Z,15.27
2022-09-28T01:07:09.224Z,13.65
2022-09-28T01:09:40.726Z,11.90
2022-09-28T01:12:08.589Z,10.18
2022-09-28T01:14:36.222Z,10.32
2022-09-28T01:17:29.811Z,8.50
2022-09-28T01:20:32.623Z,9.32
2022-09-28T01:23:44.709Z,7.13
2022-09-28T01:26:23.986Z,6.82
2022-09-28T01:29:00.363Z,8.10
2022-09-28T01:31:33.880Z,7.05
2022-09-28T01:36:42.894Z,6.28
2022-09-28T01:39:15.632Z,3.72
2022-09-28T01:41:48.326Z,3.60
2022-09-28T01:44:20.056Z,4.43
2022-09-28T01:46:50.183Z,4.03
2022-09-28T01:49:23.021Z,3.25
2022-09-28T01:51:59.873Z,3.17
2022-09-28T01:54:36.330Z,4.03
2022-09-28T01:57:27.384Z,4.28
2022-09-28T02:00:04.519Z,4.78
2022-09-28T02:02:54.681Z,6.53
2022-09-28T02:05:38.734Z,4.15
2022-09-28T02:08:15.421Z,6.00
2022-09-28T02:10:49.951Z,4.70
2022-09-28T02:13:49.702Z,5.45
2022-09-28T02:16:39.768Z,4.15
2022-09-28T02:19:17.105Z,4.70
2022-09-28T02:21:50.641Z,5.97
2022-09-28T02:24:25.324Z,4.93
2022-09-28T02:26:59.177Z,7.65
2022-09-28T02:29:33.101Z,4.25
2022-09-28T02:32:00.643Z,4.50
2022-09-28T02:34:28.314Z,5.45
2022-09-28T02:36:55.992Z,4.35
2022-09-28T02:39:24.074Z,4.25
2022-09-28T02:42:14.778Z,5.18
2022-09-28T02:45:06.432Z,4.03
2022-09-28T02:47:52.148Z,7.70
2022-09-28T02:50:39.451Z,7.43
2022-09-28T02:53:44.642Z,6.75
2022-09-28T02:56:30.571Z,5.00
2022-09-28T02:59:16.037Z,3.92
2022-09-28T03:02:03.871Z,6.82
2022-09-28T03:05:00.928Z,5.45
2022-09-28T03:07:36.910Z,4.78
2022-09-28T03:12:36.588Z,6.90
2022-09-28T03:15:11.250Z,7.18
2022-09-28T03:17:39.812Z,5.10
2022-09-28T03:20:10.255Z,5.97
2022-09-28T03:22:38.811Z,5.28
2022-09-28T03:25:07.601Z,4.88
2022-09-28T03:27:36.812Z,7.05
2022-09-28T03:30:05.372Z,7.32
2022-09-28T03:32:33.839Z,6.80
2022-09-28T03:35:01.659Z,6.13
2022-09-28T03:38:02.407Z,9.38
2022-09-28T03:41:15.684Z,5.82
2022-09-28T03:43:43.888Z,7.53
2022-09-28T03:46:13.709Z,7.05
2022-09-28T03:48:46.038Z,5.53
2022-09-28T03:51:14.234Z,5.85
2022-09-28T03:53:41.885Z,9.15
2022-09-28T03:56:14.262Z,5.95
2022-09-28T03:58:42.528Z,7.43
2022-09-28T04:01:16.778Z,7.40
2022-09-28T04:03:46.876Z,5.68
2022-09-28T04:06:14.876Z,7.20
2022-09-28T04:08:43.372Z,6.95
2022-09-28T04:11:11.871Z,6.95
2022-09-28T04:13:39.613Z,6.07
2022-09-28T04:16:11.521Z,7.28
2022-09-28T04:18:40.229Z,6.72
2022-09-28T04:21:25.842Z,5.72
2022-09-28T04:24:02.241Z,8.18
2022-09-28T04:26:30.425Z,6.90
2022-09-28T04:29:16.702Z,8.48
2022-09-28T04:31:55.405Z,6.20
2022-09-28T04:34:36.568Z,7.18
2022-09-28T04:37:06.330Z,9.88
2022-09-28T04:39:34.125Z,10.05
2022-09-28T04:42:01.894Z,8.65
2022-09-28T04:44:29.893Z,7.95
2022-09-28T04:47:05.896Z,7.25
2022-09-28T04:49:35.492Z,8.57
2022-09-28T04:52:17.844Z,7.53
2022-09-28T04:54:47.949Z,7.68
2022-09-28T04:57:15.480Z,9.25
2022-09-28T04:59:43.014Z,9.48
2022-09-28T05:02:10.935Z,7.97
2022-09-28T05:04:58.877Z,11.38
2022-09-28T05:07:46.056Z,11.25
2022-09-28T05:10:13.948Z,7.95
2022-09-28T05:12:41.822Z,8.73
2022-09-28T05:15:11.125Z,9.50
2022-09-28T05:17:38.878Z,7.53
2022-09-28T05:20:06.996Z,6.25
2022-09-28T05:22:34.587Z,6.85
2022-09-28T05:25:03.033Z,6.30
2022-09-28T05:27:36.844Z,6.60
2022-09-28T05:30:10.885Z,5.82
2022-09-28T05:32:57.004Z,5.75
2022-09-28T05:35:31.449Z,5.18
2022-09-28T05:38:04.600Z,4.18
2022-09-28T05:40:32.875Z,5.90
2022-09-28T05:43:02.073Z,5.03
2022-09-28T05:45:30.307Z,5.55
2022-09-28T05:47:57.744Z,6.40
2022-09-28T05:50:25.366Z,4.05
2022-09-28T05:53:08.378Z,8.15
2022-09-28T05:55:37.863Z,8.07
2022-09-28T05:58:07.114Z,7.03
2022-09-28T06:00:36.204Z,5.53
2022-09-28T06:03:09.248Z,4.93
2022-09-28T06:08:10.329Z,3.30
2022-09-28T06:10:40.013Z,7.18
2022-09-28T06:13:08.595Z,6.43
2022-09-28T06:15:36.766Z,8.63
2022-09-28T06:18:11.725Z,5.60
2022-09-28T06:20:52.183Z,3.17
2022-09-28T06:23:29.295Z,3.42
2022-09-28T06:25:59.724Z,1.98
2022-09-28T06:28:28.048Z,1.80
2022-09-28T06:30:56.737Z,4.07
2022-09-28T06:33:25.702Z,8.10
2022-09-28T06:36:11.830Z,1.13
2022-09-28T06:38:39.417Z,2.40
2022-09-28T06:41:07.142Z,2.10
2022-09-28T06:43:35.253Z,3.95
2022-09-28T06:46:26.017Z,1.05
2022-09-28T06:49:19.475Z,2.08
2022-09-28T06:52:06.184Z,10.35
2022-09-28T06:54:52.541Z,4.43
2022-09-28T06:57:29.208Z,5.45
2022-09-28T06:59:56.730Z,1.75
2022-09-28T07:02:24.300Z,2.00
2022-09-28T07:05:03.945Z,2.78
2022-09-28T07:07:57.938Z,7.32
2022-09-28T07:10:48.818Z,4.07
2022-09-28T07:13:48.634Z,4.43
2022-09-28T07:16:22.715Z,1.20
2022-09-28T07:18:53.613Z,1.52
2022-09-28T07:21:29.114Z,0.98
2022-09-28T07:24:01.242Z,2.58
2022-09-28T07:27:04.552Z,1.42
2022-09-28T07:29:55.088Z,1.70
2022-09-28T07:32:32.207Z,1.98
2022-09-28T07:35:16.077Z,2.65
2022-09-28T07:37:49.774Z,2.75
2022-09-28T07:40:35.976Z,6.00
2022-09-28T07:43:05.487Z,5.90
2022-09-28T07:45:36.198Z,0.80
2022-09-28T07:48:04.567Z,5.43
2022-09-28T07:50:56.880Z,2.03
2022-09-28T07:53:32.778Z,3.03
2022-09-28T07:59:09.991Z,2.17
2022-09-28T08:01:40.232Z,1.20
2022-09-28T08:04:10.255Z,3.90
2022-09-28T08:06:40.520Z,1.15
2022-09-28T08:09:09.806Z,2.72
2022-09-28T08:11:57.476Z,0.95
2022-09-28T08:14:37.660Z,1.90
2022-09-28T08:17:31.350Z,1.33
2022-09-28T08:20:19.479Z,4.40
2022-09-28T08:22:47.098Z,1.15
2022-09-28T08:25:14.788Z,2.97
2022-09-28T08:27:42.311Z,1.25
2022-09-28T08:30:10.630Z,2.10
2022-09-28T08:32:49.382Z,0.88
2022-09-28T08:35:35.183Z,1.02
2022-09-28T08:38:13.230Z,0.52
2022-09-28T08:41:09.986Z,2.15
2022-09-28T08:44:24.109Z,1.15
2022-09-28T08:47:35.033Z,0.50
2022-09-28T08:50:28.737Z,1.23
2022-09-28T08:53:43.247Z,2.95
2022-09-28T08:56:29.286Z,1.73
2022-09-28T08:59:02.427Z,2.30
2022-09-28T09:01:40.544Z,0.93
2022-09-28T09:04:13.514Z,3.03
2022-09-28T09:07:10.116Z,1.10
2022-09-28T09:10:01.140Z,1.67
2022-09-28T09:13:14.108Z,0.63
2022-09-28T09:16:24.331Z,6.30
2022-09-28T09:19:16.676Z,2.42
2022-09-28T09:22:41.142Z,1.55
2022-09-28T09:25:15.449Z,3.15
2022-09-28T09:28:22.085Z,4.35
2022-09-28T09:31:09.334Z,2.60
2022-09-28T09:33:52.255Z,3.08
2022-09-28T09:37:06.780Z,3.63
2022-09-28T09:40:18.092Z,10.30
2022-09-28T09:43:38.501Z,76.43
2022-09-28T09:47:08.141Z,25.83
2022-09-28T09:50:05.443Z,42.55
2022-09-28T09:52:54.996Z,29.92
2022-09-28T09:55:35.257Z,50.40
2022-09-28T09:58:31.782Z,46.50
2022-09-28T10:01:19.137Z,25.23
2022-09-28T10:04:15.604Z,43.30
2022-09-28T10:06:43.850Z,47.35
2022-09-28T10:09:20.781Z,57.65
2022-09-28T10:11:50.306Z,60.45
2022-09-28T10:14:24.501Z,48.05
2022-09-28T10:17:03.990Z,12.52
2022-09-28T10:20:04.187Z,51.00
2022-09-28T10:22:52.262Z,22.15
2022-09-28T10:25:20.435Z,26.65
2022-09-28T10:27:52.371Z,6.68
2022-09-28T10:30:25.486Z,10.50
2022-09-28T10:32:59.302Z,13.13
2022-09-28T10:35:42.141Z,1.67
2022-09-28T10:38:18.635Z,5.15
2022-09-28T10:41:00.942Z,19.02
2022-09-28T10:44:08.930Z,7.97
2022-09-28T10:47:17.032Z,7.03
2022-09-28T10:49:49.347Z,6.57
2022-09-28T10:52:40.461Z,6.70
2022-09-28T10:55:32.356Z,8.55
2022-09-28T10:58:00.776Z,24.40
2022-09-28T11:00:43.590Z,11.38
2022-09-28T11:03:26.680Z,16.52
2022-09-28T11:06:06.156Z,16.37
2022-09-28T11:08:41.907Z,10.27
2022-09-28T11:11:20.025Z,8.07
2022-09-28T11:14:03.615Z,4.18
2022-09-28T11:16:37.061Z,6.20
2022-09-28T11:19:20.821Z,6.03
2022-09-28T11:21:49.748Z,4.03
2022-09-28T11:24:21.152Z,4.93
2022-09-28T11:26:57.104Z,4.53
2022-09-28T11:29:52.991Z,1.73
2022-09-28T11:32:44.618Z,1.20
2022-09-28T11:35:25.470Z,2.20
2022-09-28T11:38:00.043Z,4.07
2022-09-28T11:41:12.141Z,2.40
2022-09-28T11:43:51.987Z,7.43
2022-09-28T11:46:26.103Z,8.48
2022-09-28T11:49:07.206Z,3.47
2022-09-28T11:51:38.088Z,1.63
2022-09-28T11:54:16.788Z,6.40
2022-09-28T11:56:49.814Z,5.28
2022-09-28T11:59:24.573Z,8.50
2022-09-28T12:01:57.180Z,8.07
2022-09-28T12:04:42.771Z,6.10
2022-09-28T12:07:25.438Z,5.68
2022-09-28T12:09:56.306Z,3.58
2022-09-28T12:12:25.836Z,6.78
2022-09-28T12:15:01.188Z,4.43
2022-09-28T12:17:45.444Z,4.17
2022-09-28T12:20:18.069Z,4.32
2022-09-28T12:23:03.371Z,4.20
2022-09-28T12:25:40.787Z,3.67
2022-09-28T12:28:15.789Z,4.38
2022-09-28T12:30:45.293Z,4.65
2022-09-28T12:33:16.001Z,5.40
2022-09-28T12:36:07.576Z,4.82
2022-09-28T12:39:08.357Z,8.15
2022-09-28T12:42:15.151Z,3.42
2022-09-28T12:44:45.580Z,8.38
2022-09-28T12:47:47.103Z,3.13
2022-09-28T12:50:39.588Z,3.35
2022-09-28T12:53:38.366Z,4.22
2022-09-28T12:56:24.299Z,2.28
2022-09-28T12:59:09.107Z,4.55
2022-09-28T13:01:52.815Z,5.18
2022-09-28T13:04:54.046Z,7.32
2022-09-28T13:07:37.927Z,3.83
2022-09-28T13:10:23.609Z,6.05
2022-09-28T13:12:58.331Z,3.40
2022-09-28T13:15:39.750Z,3.60
2022-09-28T13:18:31.345Z,5.30
2022-09-28T13:21:09.744Z,5.00
2022-09-28T13:23:46.712Z,2.50
2022-09-28T13:26:23.783Z,5.13
2022-09-28T13:28:54.856Z,3.88
2022-09-28T13:31:33.057Z,3.83
2022-09-28T13:34:04.638Z,4.25
2022-09-28T13:36:32.055Z,4.20
2022-09-28T13:39:02.830Z,4.32
2022-09-28T13:41:40.520Z,5.32
2022-09-28T13:44:11.138Z,4.75
2022-09-28T13:47:20.471Z,4.78
2022-09-28T13:50:21.120Z,5.38
2022-09-28T13:53:13.493Z,4.43
2022-09-28T13:55:50.802Z,4.85
2022-09-28T13:58:26.402Z,4.45
2022-09-28T14:01:02.402Z,4.55
2022-09-28T14:03:43.640Z,6.25
2022-09-28T14:06:27.559Z,4.03
2022-09-28T14:09:13.125Z,7.45
2022-09-28T14:11:43.164Z,6.57
2022-09-28T14:14:12.028Z,5.80
2022-09-28T14:16:42.170Z,3.78
2022-09-28T14:19:24.343Z,4.57
2022-09-28T14:21:58.257Z,7.63
2022-09-28T14:24:53.560Z,5.38
2022-09-28T14:27:30.258Z,4.35
2022-09-28T14:30:12.545Z,5.03
2022-09-28T14:32:43.192Z,4.65
2022-09-28T14:35:19.221Z,4.20
2022-09-28T14:38:08.628Z,4.45
2022-09-28T14:41:10.008Z,3.42
2022-09-28T14:43:58.228Z,2.58
2022-09-28T14:46:25.730Z,5.75
2022-09-28T14:48:53.366Z,4.30
2022-09-28T14:51:26.988Z,2.70
2022-09-28T14:54:02.328Z,6.72
2022-09-28T14:56:34.006Z,3.17
2022-09-28T14:59:02.456Z,6.35
2022-09-28T15:01:30.549Z,3.60
2022-09-28T15:04:04.631Z,3.47
2022-09-28T15:06:49.425Z,3.83
2022-09-28T15:09:35.176Z,4.03
2022-09-28T15:12:03.682Z,4.05
2022-09-28T15:14:34.465Z,7.15
2022-09-28T15:17:09.928Z,3.47
2022-09-28T15:20:17.252Z,4.75
2022-09-28T15:22:49.315Z,2.70
2022-09-28T15:25:20.364Z,3.50
2022-09-28T15:27:56.465Z,3.53
2022-09-28T15:30:34.960Z,5.22
2022-09-28T15:33:22.650Z,3.95
2022-09-28T15:36:01.991Z,4.10
2022-09-28T15:38:32.420Z,6.18
2022-09-28T15:41:05.797Z,4.05
2022-09-28T15:46:18.494Z,5.30
2022-09-28T15:48:59.695Z,5.13
2022-09-28T15:51:29.529Z,2.80
2022-09-28T15:54:16.638Z,3.90
2022-09-28T15:57:28.312Z,3.55
2022-09-28T15:59:59.566Z,5.90
2022-09-28T16:02:27.736Z,2.08
2022-09-28T16:04:59.021Z,3.10
2022-09-28T16:07:38.480Z,4.03
2022-09-28T16:10:12.042Z,5.55
2022-09-28T16:15:28.378Z,3.42
2022-09-28T16:18:03.092Z,3.38
2022-09-28T16:20:35.638Z,4.18
2022-09-28T16:23:20.287Z,4.65
2022-09-28T16:26:02.118Z,2.85
2022-09-28T16:28:38.614Z,2.55
2022-09-28T16:31:21.451Z,4.65
2022-09-28T16:33:52.255Z,3.33
2022-09-28T16:36:22.113Z,3.72
2022-09-28T16:38:50.008Z,6.05
2022-09-28T16:41:22.952Z,5.43
2022-09-28T16:43:56.448Z,2.53
2022-09-28T16:46:32.830Z,3.78
2022-09-28T16:49:03.110Z,4.55
2022-09-28T16:51:30.546Z,3.90
2022-09-28T16:54:35.121Z,5.53
2022-09-28T16:57:04.271Z,4.40
2022-09-28T16:59:32.160Z,4.32
2022-09-28T17:01:59.685Z,5.72
2022-09-28T17:04:27.900Z,8.13
2022-09-28T17:06:56.512Z,6.57
2022-09-28T17:09:24.251Z,4.28
2022-09-28T17:11:57.190Z,4.13
2022-09-28T17:14:24.828Z,6.28
2022-09-28T17:19:42.511Z,3.55
2022-09-28T17:22:10.599Z,5.88
2022-09-28T17:24:38.170Z,2.95
2022-09-28T17:27:07.109Z,6.15
2022-09-28T17:29:34.698Z,4.28
2022-09-28T17:32:02.577Z,3.70
2022-09-28T17:34:30.092Z,3.47
2022-09-28T17:36:57.554Z,5.00
2022-09-28T17:39:25.390Z,4.38
2022-09-28T17:41:53.226Z,5.85
2022-09-28T17:44:21.082Z,6.50
2022-09-28T17:46:49.817Z,6.00
2022-09-28T17:49:17.951Z,4.18
2022-09-28T17:51:45.653Z,5.63
2022-09-28T17:54:14.120Z,5.25
2022-09-28T17:56:42.668Z,3.70
2022-09-28T17:59:14.516Z,6.13
2022-09-28T18:01:42.154Z,5.13
2022-09-28T18:04:19.195Z,3.20
2022-09-28T18:06:51.663Z,4.10
2022-09-28T18:09:25.252Z,6.22
2022-09-28T18:12:00.443Z,4.57
2022-09-28T18:14:28.709Z,4.47
2022-09-28T18:16:56.867Z,3.40
2022-09-28T18:19:27.488Z,4.10
2022-09-28T18:21:59.066Z,3.38
2022-09-28T18:24:26.689Z,2.58
2022-09-28T18:26:54.219Z,5.25
2022-09-28T18:29:21.781Z,3.53
2022-09-28T18:31:49.520Z,3.33
2022-09-28T18:34:17.407Z,4.75
2022-09-28T18:36:45.636Z,5.22
2022-09-28T18:39:13.204Z,3.05
2022-09-28T18:41:42.361Z,3.00
2022-09-28T18:44:10.543Z,5.80
2022-09-28T18:46:38.702Z,2.35
2022-09-28T18:49:06.731Z,4.65
2022-09-28T18:51:34.536Z,6.50
2022-09-28T18:54:07.565Z,4.43
2022-09-28T18:56:38.083Z,4.85
2022-09-28T18:59:11.273Z,3.83
2022-09-28T19:01:41.591Z,3.45
2022-09-28T19:04:11.159Z,2.65
2022-09-28T19:06:40.794Z,3.30
2022-09-28T19:09:09.246Z,3.90
2022-09-28T19:11:36.978Z,3.25
2022-09-28T19:14:04.559Z,4.32
2022-09-28T19:16:34.119Z,3.10
2022-09-28T19:19:03.140Z,4.43
2022-09-28T19:21:30.833Z,5.70
2022-09-28T19:24:02.979Z,4.57
2022-09-28T19:26:32.091Z,6.95
2022-09-28T19:28:59.935Z,5.63
2022-09-28T19:31:28.945Z,5.20
2022-09-28T19:33:57.312Z,4.68
2022-09-28T19:36:28.725Z,4.57
2022-09-28T19:38:58.633Z,5.13
2022-09-28T19:41:49.517Z,4.60
2022-09-28T19:44:25.092Z,3.97
2022-09-28T19:46:56.324Z,5.05
2022-09-28T19:49:25.671Z,6.47
2022-09-28T19:52:15.168Z,4.55
2022-09-28T19:54:45.634Z,4.00
2022-09-28T19:57:16.045Z,4.82
2022-09-28T19:59:44.433Z,4.32
2022-09-28T20:02:13.432Z,4.30
2022-09-28T20:04:44.078Z,6.18
2022-09-28T20:07:11.826Z,6.10
2022-09-28T20:09:39.669Z,3.70
2022-09-28T20:12:07.348Z,5.80
2022-09-28T20:14:38.197Z,4.60
2022-09-28T20:17:08.003Z,6.28
2022-09-28T20:19:36.148Z,5.88
2022-09-28T20:22:04.090Z,7.00
2022-09-28T20:24:32.643Z,5.20
2022-09-28T20:27:01.486Z,6.88
2022-09-28T20:29:31.737Z,6.63
2022-09-28T20:31:59.438Z,6.88
2022-09-28T20:34:27.243Z,9.40
2022-09-28T20:36:55.332Z,6.50
2022-09-28T20:39:22.839Z,9.13
2022-09-28T20:41:50.543Z,6.75
2022-09-28T20:44:18.410Z,7.28
2022-09-28T20:46:49.938Z,7.47
2022-09-28T20:49:17.641Z,8.07
2022-09-28T20:51:45.250Z,5.63
2022-09-28T20:54:12.694Z,6.70
2022-09-28T20:56:40.430Z,7.50
2022-09-28T20:59:11.409Z,6.47
2022-09-28T21:01:39.767Z,5.90
2022-09-28T21:04:09.012Z,8.43
2022-09-28T21:06:39.107Z,7.55
2022-09-28T21:09:08.073Z,5.82
2022-09-28T21:11:35.978Z,4.85
2022-09-28T21:14:06.366Z,7.35
2022-09-28T21:16:35.184Z,11.48
2022-09-28T21:19:03.585Z,6.13
2022-09-28T21:21:31.379Z,4.75
2022-09-28T21:23:59.097Z,5.68
2022-09-28T21:26:29.153Z,6.82
2022-09-28T21:29:02.435Z,7.40
2022-09-28T21:31:32.946Z,5.68
2022-09-28T21:34:00.834Z,5.55
2022-09-28T21:36:28.572Z,7.25
2022-09-28T21:38:56.166Z,8.73
2022-09-28T21:41:24.825Z,4.82
2022-09-28T21:43:52.887Z,9.30
2022-09-28T21:46:20.901Z,7.03
2022-09-28T21:48:56.344Z,8.60
2022-09-28T21:51:24.548Z,5.70
2022-09-28T21:53:52.647Z,6.90
2022-09-28T21:56:20.851Z,7.00
2022-09-28T21:58:49.022Z,5.22
2022-09-28T22:01:22.863Z,5.60
2022-09-28T22:03:54.121Z,5.80
2022-09-28T22:06:23.557Z,8.50
2022-09-28T22:08:51.633Z,6.68
2022-09-28T22:11:21.455Z,5.55
2022-09-28T22:13:57.508Z,5.68
2022-09-28T22:16:30.722Z,6.00
2022-09-28T22:18:59.605Z,5.65
2022-09-28T22:21:29.988Z,7.43
2022-09-28T22:24:02.902Z,6.07
2022-09-28T22:26:31.909Z,7.35
2022-09-28T22:29:01.899Z,6.40
2022-09-28T22:31:32.089Z,6.22
2022-09-28T22:33:59.987Z,4.97
2022-09-28T22:36:28.037Z,7.00
2022-09-28T22:38:56.999Z,6.75
2022-09-28T22:41:25.022Z,4.95
2022-09-28T22:43:53.737Z,9.05
2022-09-28T22:46:26.729Z,7.82
2022-09-28T22:48:56.280Z,4.20
2022-09-28T22:51:25.326Z,6.03
2022-09-28T22:53:52.983Z,7.72
2022-09-28T22:56:20.391Z,4.40
2022-09-28T22:58:48.043Z,3.50
2022-09-28T23:01:21.228Z,4.60
2022-09-28T23:03:50.281Z,4.20
2022-09-28T23:06:21.065Z,5.13
2022-09-28T23:08:50.337Z,6.47
2022-09-28T23:11:18.716Z,6.55
2022-09-28T23:13:57.770Z,7.63
2022-09-28T23:16:26.830Z,5.60
2022-09-28T23:18:55.662Z,5.68
2022-09-28T23:21:25.961Z,4.70
2022-09-28T23:23:59.129Z,8.77
2022-09-28T23:26:29.506Z,3.83
2022-09-28T23:28:57.434Z,5.32
2022-09-28T23:31:28.106Z,8.52
2022-09-28T23:34:01.270Z,6.03
2022-09-28T23:36:29.218Z,7.53
2022-09-28T23:38:57.047Z,5.32
2022-09-28T23:41:24.646Z,7.43
2022-09-28T23:43:52.182Z,9.60
2022-09-28T23:46:20.946Z,10.32
2022-09-28T23:48:49.348Z,6.97
2022-09-28T23:51:17.331Z,3.47
2022-09-28T23:53:45.682Z,8.60
2022-09-28T23:56:14.560Z,4.00
2022-09-28T23:58:43.040Z,6.07
